createdAt,value
2022-10-13T00:00:28.600Z,101056.16
2022-10-13T00:05:51.452Z,101061.39
2022-10-13T00:10:53.847Z,101056.36
2022-10-13T00:15:56.324Z,101058.89
2022-10-13T00:20:59.002Z,101056.88
2022-10-13T00:26:02.842Z,101054.42
2022-10-13T00:31:08.195Z,101056.71
2022-10-13T00:36:10.599Z,101058.54
2022-10-13T00:41:13.075Z,101059.76
2022-10-13T00:46:16.065Z,101062.02
2022-10-13T00:51:21.306Z,101056.54
2022-10-13T00:56:25.694Z,101058.33
2022-10-13T01:01:28.659Z,101054.16
2022-10-13T01:06:31.203Z,101051.52
2022-10-13T01:11:36.515Z,101053.02
2022-10-13T01:16:43.797Z,101048.83
2022-10-13T01:21:49.115Z,101044.95
2022-10-13T01:26:51.475Z,101040.65
2022-10-13T01:31:56.794Z,101033.63
2022-10-13T01:37:02.100Z,101031.47
2022-10-13T01:42:11.396Z,101030.16
2022-10-13T01:47:15.581Z,101028.47
2022-10-13T01:52:20.460Z,101031.29
2022-10-13T01:57:25.939Z,101027.21
2022-10-13T02:02:31.934Z,101023.84
2022-10-13T02:07:43.799Z,101020.94
2022-10-13T02:12:49.131Z,101019.05
2022-10-13T02:17:52.454Z,101023.91
2022-10-13T02:22:57.381Z,101025.61
2022-10-13T02:28:00.729Z,101023.12
2022-10-13T02:33:03.324Z,101018.85
2022-10-13T02:38:06.039Z,101015.79
2022-10-13T02:43:08.451Z,101011.14
2022-10-13T02:48:11.023Z,101006.70
2022-10-13T02:53:13.418Z,101001.92
2022-10-13T02:58:15.887Z,101004.40
2022-10-13T03:03:18.307Z,100999.81
2022-10-13T03:08:20.689Z,100999.05
2022-10-13T03:13:23.183Z,101001.74
2022-10-13T03:18:25.905Z,100997.84
2022-10-13T03:23:28.493Z,101000.38
2022-10-13T03:28:31.307Z,101001.87
2022-10-13T03:33:33.825Z,100999.31
2022-10-13T03:38:36.897Z,100998.05
2022-10-13T03:43:39.881Z,100992.31
2022-10-13T03:48:56.309Z,100986.54
2022-10-13T03:53:58.707Z,100987.70
2022-10-13T03:59:04.760Z,100988.89
2022-10-13T04:04:10.253Z,100988.21
2022-10-13T04:09:13.080Z,100988.73
2022-10-13T04:14:15.457Z,100986.95
2022-10-13T04:19:17.981Z,100983.73
2022-10-13T04:24:20.447Z,100985.58
2022-10-13T04:29:22.821Z,100990.55
2022-10-13T04:34:25.259Z,100989.27
2022-10-13T04:39:27.636Z,100983.66
2022-10-13T04:44:31.005Z,100983.98
2022-10-13T04:49:33.772Z,100984.61
2022-10-13T04:54:36.165Z,100982.02
2022-10-13T04:59:38.585Z,100983.86
2022-10-13T05:04:41.005Z,100987.17
2022-10-13T05:09:43.381Z,100988.08
2022-10-13T05:14:45.873Z,100989.21
2022-10-13T05:19:48.813Z,100982.38
2022-10-13T05:24:51.225Z,100982.30
2022-10-13T05:29:53.655Z,100977.71
2022-10-13T05:34:56.036Z,100976.74
2022-10-13T05:39:58.428Z,100967.54
2022-10-13T05:45:00.856Z,100964.75
2022-10-13T05:50:03.461Z,100958.80
2022-10-13T05:55:08.996Z,100959.82
2022-10-13T06:00:13.611Z,100960.00
2022-10-13T06:05:18.129Z,100963.46
2022-10-13T06:10:20.694Z,100970.02
2022-10-13T06:15:27.849Z,100977.27
2022-10-13T06:20:30.945Z,100975.65
2022-10-13T06:25:33.402Z,100977.36
2022-10-13T06:30:38.066Z,100970.23
2022-10-13T06:35:40.562Z,100967.84
2022-10-13T06:40:43.392Z,100961.10
2022-10-13T06:45:45.854Z,100958.05
2022-10-13T06:50:48.407Z,100952.31
2022-10-13T06:55:52.555Z,100945.42
2022-10-13T07:00:55.553Z,100945.41
2022-10-13T07:06:00.758Z,100941.14
2022-10-13T07:11:06.073Z,100947.14
2022-10-13T07:16:09.056Z,100947.21
2022-10-13T07:21:11.477Z,100949.48
2022-10-13T07:26:14.912Z,100940.71
2022-10-13T07:31:18.458Z,100940.50
2022-10-13T07:36:20.908Z,100941.17
2022-10-13T07:41:23.658Z,100932.14
2022-10-13T07:46:26.092Z,100927.45
2022-10-13T07:51:28.615Z,100929.99
2022-10-13T07:56:31.111Z,100929.37
2022-10-13T08:01:33.578Z,100923.14
2022-10-13T08:06:36.031Z,100920.12
2022-10-13T08:11:38.600Z,100920.73
2022-10-13T08:16:44.286Z,100913.83
2022-10-13T08:22:02.269Z,100908.71
2022-10-13T08:27:04.783Z,100907.73
2022-10-13T08:32:07.229Z,100905.02
2022-10-13T08:37:12.543Z,100906.08
2022-10-13T08:42:18.631Z,100905.90
2022-10-13T08:47:24.133Z,100900.27
2022-10-13T08:52:27.906Z,100914.96
2022-10-13T08:57:30.538Z,100911.45
2022-10-13T09:02:33.077Z,100901.65
2022-10-13T09:07:37.079Z,100881.81
2022-10-13T09:12:39.509Z,100871.43
2022-10-13T09:17:42.173Z,100862.77
2022-10-13T09:22:45.273Z,100863.23
2022-10-13T09:27:49.958Z,100861.11
2022-10-13T09:32:55.335Z,100862.33
2022-10-13T09:38:00.725Z,100853.21
2022-10-13T09:43:20.319Z,100859.73
2022-10-13T09:48:25.327Z,100856.04
2022-10-13T09:53:32.444Z,100849.45
2022-10-13T09:58:38.431Z,100845.23
2022-10-13T10:03:41.112Z,100847.65
2022-10-13T10:09:02.750Z,100851.14
2022-10-13T10:14:09.337Z,100837.66
2022-10-13T10:19:12.721Z,100838.15
2022-10-13T10:24:18.159Z,100831.66
2022-10-13T10:29:23.604Z,100818.79
2022-10-13T10:34:28.825Z,100812.83
2022-10-13T10:39:34.557Z,100802.64
2022-10-13T10:44:41.216Z,100797.30
2022-10-13T10:49:44.236Z,100790.35
2022-10-13T10:54:51.628Z,100789.58
2022-10-13T10:59:56.949Z,100796.67
2022-10-13T11:05:05.213Z,100791.50
2022-10-13T11:10:09.832Z,100787.17
2022-10-13T11:15:16.265Z,100782.21
2022-10-13T11:20:20.701Z,100785.97
2022-10-13T11:25:26.193Z,100777.38
2022-10-13T11:30:31.669Z,100773.76
2022-10-13T11:35:34.060Z,100759.38
2022-10-13T11:40:39.408Z,100758.92
2022-10-13T11:45:47.305Z,100755.95
2022-10-13T11:50:49.723Z,100752.29
2022-10-13T11:55:52.174Z,100750.16
2022-10-13T12:00:55.532Z,100735.53
2022-10-13T12:06:00.755Z,100727.19
2022-10-13T12:11:07.374Z,100730.08
2022-10-13T12:16:13.445Z,100721.92
2022-10-13T12:27:56.193Z,100709.12
2022-10-13T12:32:59.734Z,100705.53
2022-10-13T12:38:05.064Z,100698.01
2022-10-13T12:43:07.523Z,100697.07
2022-10-13T12:48:28.764Z,100687.37
2022-10-13T12:53:31.220Z,100678.49
2022-10-13T12:58:34.727Z,100673.10
2022-10-13T13:03:38.389Z,100670.89
2022-10-13T13:08:42.492Z,100670.73
2022-10-13T13:13:44.884Z,100668.30
2022-10-13T13:18:48.414Z,100662.04
2022-10-13T13:23:53.773Z,100654.69
2022-10-13T13:28:56.905Z,100646.95
2022-10-13T13:33:59.350Z,100643.23
2022-10-13T13:39:01.693Z,100638.65
2022-10-13T13:44:04.124Z,100635.19
2022-10-13T13:49:06.524Z,100634.77
2022-10-13T13:54:08.880Z,100632.89
2022-10-13T13:59:13.750Z,100627.95
2022-10-13T14:04:16.087Z,100633.61
2022-10-13T14:09:18.594Z,100632.77
2022-10-13T14:14:21.406Z,100631.45
2022-10-13T14:19:23.832Z,100630.06
2022-10-13T14:24:26.169Z,100621.16
2022-10-13T14:29:28.533Z,100623.65
2022-10-13T14:34:31.118Z,100628.69
2022-10-13T14:39:33.715Z,100619.07
2022-10-13T14:44:36.183Z,100622.41
2022-10-13T14:49:38.601Z,100623.98
2022-10-13T14:54:44.676Z,100615.38
2022-10-13T14:59:47.576Z,100610.69
2022-10-13T15:04:49.976Z,100610.27
2022-10-13T15:10:04.182Z,100613.43
2022-10-13T15:15:08.435Z,100610.20
2022-10-13T15:20:11.044Z,100604.98
2022-10-13T15:25:13.651Z,100594.90
2022-10-13T15:30:16.046Z,100588.35
2022-10-13T15:35:18.400Z,100591.65
2022-10-13T15:40:20.743Z,100589.70
2022-10-13T15:45:23.078Z,100589.27
2022-10-13T15:50:25.533Z,100583.14
2022-10-13T15:55:28.662Z,100577.23
2022-10-13T16:00:31.157Z,100573.71
2022-10-13T16:05:33.621Z,100568.04
2022-10-13T16:10:38.195Z,100563.31
2022-10-13T16:15:41.186Z,100567.88
2022-10-13T16:20:45.300Z,100566.98
2022-10-13T16:25:47.885Z,100563.77
2022-10-13T16:30:50.303Z,100556.16
2022-10-13T16:36:01.240Z,100554.54
2022-10-13T16:41:06.797Z,100549.18
2022-10-13T16:46:12.781Z,100551.13
2022-10-13T16:51:16.741Z,100550.19
2022-10-13T16:56:22.253Z,100546.45
2022-10-13T17:01:25.732Z,100544.05
2022-10-13T17:06:28.670Z,100549.38
2022-10-13T17:11:31.867Z,100552.50
2022-10-13T17:16:35.573Z,100553.48
2022-10-13T17:21:38.050Z,100552.09
2022-10-13T17:26:40.432Z,100544.37
2022-10-13T17:31:43.768Z,100542.43
2022-10-13T17:36:46.270Z,100540.19
2022-10-13T17:41:48.870Z,100540.74
2022-10-13T17:46:51.352Z,100537.83
2022-10-13T17:51:54.586Z,100532.75
2022-10-13T17:56:57.182Z,100530.91
2022-10-13T18:01:59.682Z,100533.98
2022-10-13T18:07:02.153Z,100535.36
2022-10-13T18:12:04.629Z,100537.58
2022-10-13T18:17:07.221Z,100531.20
2022-10-13T18:22:09.594Z,100532.44
2022-10-13T18:27:12.157Z,100531.14
2022-10-13T18:32:14.538Z,100526.59
2022-10-13T18:37:16.945Z,100529.69
2022-10-13T18:42:19.333Z,100524.41
2022-10-13T18:47:22.189Z,100525.48
2022-10-13T18:52:24.924Z,100519.88
2022-10-13T18:57:27.317Z,100517.75
2022-10-13T19:09:00.460Z,100509.35
2022-10-13T19:14:04.149Z,100506.92
2022-10-13T19:19:08.807Z,100509.04
2022-10-13T19:24:11.524Z,100508.27
2022-10-13T19:29:15.505Z,100501.41
2022-10-13T19:34:17.890Z,100494.29
2022-10-13T19:40:11.273Z,100492.58
2022-10-13T19:45:13.810Z,100487.23
2022-10-13T19:50:16.219Z,100486.95
2022-10-13T19:55:18.631Z,100486.07
2022-10-13T20:00:21.094Z,100488.95
2022-10-13T20:05:25.585Z,100488.36
2022-10-13T20:10:28.071Z,100491.96
2022-10-13T20:15:30.485Z,100489.89
2022-10-13T20:20:34.212Z,100490.52
2022-10-13T20:25:37.763Z,100487.38
2022-10-13T20:30:40.224Z,100486.48
2022-10-13T20:35:42.628Z,100483.60
2022-10-13T20:40:45.086Z,100481.98
2022-10-13T20:45:47.450Z,100474.98
2022-10-13T20:50:49.829Z,100466.56
2022-10-13T20:55:55.456Z,100462.11
2022-10-13T21:00:57.975Z,100457.05
2022-10-13T21:06:01.807Z,100453.91
2022-10-13T21:11:06.808Z,100454.90
2022-10-13T21:16:11.205Z,100454.09
2022-10-13T21:21:13.981Z,100449.77
2022-10-13T21:26:21.417Z,100448.66
2022-10-13T21:31:24.703Z,100445.17
2022-10-13T21:36:29.149Z,100438.70
2022-10-13T21:41:31.651Z,100440.38
2022-10-13T21:46:34.617Z,100442.28
2022-10-13T21:51:38.347Z,100435.80
2022-10-13T21:56:41.127Z,100435.83
2022-10-13T22:01:43.965Z,100431.83
2022-10-13T22:06:46.527Z,100421.55
2022-10-13T22:11:52.842Z,100422.38
2022-10-13T22:16:58.025Z,100423.90
2022-10-13T22:22:00.457Z,100423.19
2022-10-13T22:27:02.990Z,100417.36
2022-10-13T22:32:05.537Z,100407.65
2022-10-13T22:37:07.956Z,100414.28
2022-10-13T22:42:10.348Z,100411.68
2022-10-13T22:47:12.862Z,100412.70
2022-10-13T22:52:15.243Z,100409.68
2022-10-13T22:57:17.723Z,100407.52
2022-10-13T23:02:20.130Z,100412.51
2022-10-13T23:07:23.096Z,100412.04
2022-10-13T23:12:25.818Z,100408.29
2022-10-13T23:24:18.066Z,100407.52
2022-10-13T23:29:20.477Z,100401.09
2022-10-13T23:34:22.907Z,100398.77
2022-10-13T23:39:25.438Z,100396.82
2022-10-13T23:44:29.805Z,100395.80
2022-10-13T23:49:32.241Z,100390.98
2022-10-13T23:54:34.681Z,100389.11
2022-10-13T23:59:37.275Z,100382.33
